sensor_id;sensor_type;location;lat;lon;timestamp;P1;durP1;ratioP1;P2;durP2;ratioP2
38783;SDS011;24531;45.502;12.238;2022-12-13T00:01:50;14.13;;;8.85;;
38783;SDS011;24531;45.502;12.238;2022-12-13T00:04:17;15.43;;;8.82;;
38783;SDS011;24531;45.502;12.238;2022-12-13T00:06:44;13.15;;;8.68;;
38783;SDS011;24531;45.502;12.238;2022-12-13T00:09:14;15.82;;;9.10;;
38783;SDS011;24531;45.502;12.238;2022-12-13T00:11:41;12.63;;;8.02;;
38783;SDS011;24531;45.502;12.238;2022-12-13T00:14:07;14.05;;;8.45;;
38783;SDS011;24531;45.502;12.238;2022-12-13T00:16:33;13.95;;;8.85;;
38783;SDS011;24531;45.502;12.238;2022-12-13T00:18:58;17.00;;;8.60;;
38783;SDS011;24531;45.502;12.238;2022-12-13T00:21:28;12.95;;;8.30;;
38783;SDS011;24531;45.502;12.238;2022-12-13T00:23:55;13.48;;;7.95;;
38783;SDS011;24531;45.502;12.238;2022-12-13T00:26:22;12.02;;;7.95;;
38783;SDS011;24531;45.502;12.238;2022-12-13T00:28:50;14.02;;;8.18;;
38783;SDS011;24531;45.502;12.238;2022-12-13T00:31:18;13.63;;;8.95;;
38783;SDS011;24531;45.502;12.238;2022-12-13T00:33:45;12.35;;;7.88;;
38783;SDS011;24531;45.502;12.238;2022-12-13T00:36:11;13.23;;;7.97;;
38783;SDS011;24531;45.502;12.238;2022-12-13T00:38:36;15.00;;;7.78;;
38783;SDS011;24531;45.502;12.238;2022-12-13T00:41:09;12.57;;;7.30;;
38783;SDS011;24531;45.502;12.238;2022-12-13T00:43:40;12.20;;;6.90;;
38783;SDS011;24531;45.502;12.238;2022-12-13T00:46:07;11.63;;;6.95;;
38783;SDS011;24531;45.502;12.238;2022-12-13T00:48:39;11.32;;;7.05;;
38783;SDS011;24531;45.502;12.238;2022-12-13T00:51:06;9.43;;;6.25;;
38783;SDS011;24531;45.502;12.238;2022-12-13T00:53:32;9.98;;;6.63;;
38783;SDS011;24531;45.502;12.238;2022-12-13T00:55:58;9.80;;;6.38;;
38783;SDS011;24531;45.502;12.238;2022-12-13T00:58:24;9.35;;;6.30;;
38783;SDS011;24531;45.502;12.238;2022-12-13T01:00:51;9.85;;;6.60;;
38783;SDS011;24531;45.502;12.238;2022-12-13T01:03:16;7.63;;;5.25;;
38783;SDS011;24531;45.502;12.238;2022-12-13T01:05:49;10.23;;;6.20;;
38783;SDS011;24531;45.502;12.238;2022-12-13T01:08:15;6.95;;;5.43;;
38783;SDS011;24531;45.502;12.238;2022-12-13T01:10:41;13.68;;;6.10;;
38783;SDS011;24531;45.502;12.238;2022-12-13T01:13:08;7.30;;;5.25;;
38783;SDS011;24531;45.502;12.238;2022-12-13T01:15:34;9.25;;;5.40;;
38783;SDS011;24531;45.502;12.238;2022-12-13T01:18:03;8.60;;;5.82;;
38783;SDS011;24531;45.502;12.238;2022-12-13T01:20:29;9.43;;;5.72;;
38783;SDS011;24531;45.502;12.238;2022-12-13T01:22:54;8.07;;;5.32;;
38783;SDS011;24531;45.502;12.238;2022-12-13T01:25:20;8.38;;;5.18;;
38783;SDS011;24531;45.502;12.238;2022-12-13T01:27:46;8.95;;;5.55;;
38783;SDS011;24531;45.502;12.238;2022-12-13T01:30:11;9.23;;;6.10;;
38783;SDS011;24531;45.502;12.238;2022-12-13T01:32:37;7.13;;;5.13;;
38783;SDS011;24531;45.502;12.238;2022-12-13T01:35:02;7.93;;;5.70;;
38783;SDS011;24531;45.502;12.238;2022-12-13T01:37:28;10.05;;;5.68;;
38783;SDS011;24531;45.502;12.238;2022-12-13T01:39:54;8.13;;;5.50;;
38783;SDS011;24531;45.502;12.238;2022-12-13T01:42:19;6.57;;;4.72;;
38783;SDS011;24531;45.502;12.238;2022-12-13T01:50:02;9.35;;;5.90;;
38783;SDS011;24531;45.502;12.238;2022-12-13T01:52:32;7.80;;;5.15;;
38783;SDS011;24531;45.502;12.238;2022-12-13T01:54:59;8.48;;;5.28;;
38783;SDS011;24531;45.502;12.238;2022-12-13T01:57:25;11.45;;;6.03;;
38783;SDS011;24531;45.502;12.238;2022-12-13T01:59:51;8.75;;;5.72;;
38783;SDS011;24531;45.502;12.238;2022-12-13T02:02:18;10.27;;;5.78;;
38783;SDS011;24531;45.502;12.238;2022-12-13T02:07:17;7.35;;;4.72;;
38783;SDS011;24531;45.502;12.238;2022-12-13T02:09:46;7.72;;;5.25;;
38783;SDS011;24531;45.502;12.238;2022-12-13T02:12:13;10.38;;;5.65;;
38783;SDS011;24531;45.502;12.238;2022-12-13T02:14:39;6.95;;;5.18;;
38783;SDS011;24531;45.502;12.238;2022-12-13T02:17:09;10.82;;;5.38;;
38783;SDS011;24531;45.502;12.238;2022-12-13T02:19:53;9.35;;;5.28;;
38783;SDS011;24531;45.502;12.238;2022-12-13T02:23:07;7.80;;;4.88;;
38783;SDS011;24531;45.502;12.238;2022-12-13T02:25:47;8.80;;;4.90;;
38783;SDS011;24531;45.502;12.238;2022-12-13T02:31:30;6.20;;;3.67;;
38783;SDS011;24531;45.502;12.238;2022-12-13T02:34:13;6.82;;;4.80;;
38783;SDS011;24531;45.502;12.238;2022-12-13T02:37:03;7.60;;;4.78;;
38783;SDS011;24531;45.502;12.238;2022-12-13T02:39:38;8.43;;;5.55;;
38783;SDS011;24531;45.502;12.238;2022-12-13T02:42:13;9.23;;;4.93;;
38783;SDS011;24531;45.502;12.238;2022-12-13T02:44:48;8.25;;;4.88;;
38783;SDS011;24531;45.502;12.238;2022-12-13T02:47:23;8.00;;;5.03;;
38783;SDS011;24531;45.502;12.238;2022-12-13T02:49:51;6.65;;;3.53;;
38783;SDS011;24531;45.502;12.238;2022-12-13T02:52:21;7.38;;;4.60;;
38783;SDS011;24531;45.502;12.238;2022-12-13T02:54:50;9.00;;;4.43;;
38783;SDS011;24531;45.502;12.238;2022-12-13T02:57:37;8.05;;;5.10;;
38783;SDS011;24531;45.502;12.238;2022-12-13T03:00:08;8.95;;;5.10;;
38783;SDS011;24531;45.502;12.238;2022-12-13T03:17:27;9.05;;;4.80;;
38783;SDS011;24531;45.502;12.238;2022-12-13T03:19:57;9.18;;;4.72;;
38783;SDS011;24531;45.502;12.238;2022-12-13T03:22:23;7.25;;;4.40;;
38783;SDS011;24531;45.502;12.238;2022-12-13T03:24:50;6.07;;;4.40;;
38783;SDS011;24531;45.502;12.238;2022-12-13T03:27:16;5.45;;;3.78;;
38783;SDS011;24531;45.502;12.238;2022-12-13T03:29:41;7.85;;;3.58;;
38783;SDS011;24531;45.502;12.238;2022-12-13T03:32:07;6.07;;;4.03;;
38783;SDS011;24531;45.502;12.238;2022-12-13T03:34:33;5.50;;;3.28;;
38783;SDS011;24531;45.502;12.238;2022-12-13T03:36:58;7.50;;;4.15;;
38783;SDS011;24531;45.502;12.238;2022-12-13T03:39:24;7.10;;;3.85;;
38783;SDS011;24531;45.502;12.238;2022-12-13T03:41:50;6.20;;;4.03;;
38783;SDS011;24531;45.502;12.238;2022-12-13T03:44:16;7.05;;;4.00;;
38783;SDS011;24531;45.502;12.238;2022-12-13T03:46:41;6.68;;;3.90;;
38783;SDS011;24531;45.502;12.238;2022-12-13T03:49:07;7.20;;;3.67;;
38783;SDS011;24531;45.502;12.238;2022-12-13T03:51:33;7.95;;;3.55;;
38783;SDS011;24531;45.502;12.238;2022-12-13T03:53:58;5.53;;;3.20;;
38783;SDS011;24531;45.502;12.238;2022-12-13T03:56:24;5.72;;;3.35;;
38783;SDS011;24531;45.502;12.238;2022-12-13T03:58:50;5.75;;;3.63;;
38783;SDS011;24531;45.502;12.238;2022-12-13T04:01:16;6.82;;;4.43;;
38783;SDS011;24531;45.502;12.238;2022-12-13T04:03:42;4.88;;;2.97;;
38783;SDS011;24531;45.502;12.238;2022-12-13T04:06:10;5.18;;;3.10;;
38783;SDS011;24531;45.502;12.238;2022-12-13T04:08:36;4.03;;;3.05;;
38783;SDS011;24531;45.502;12.238;2022-12-13T04:11:03;7.68;;;3.58;;
38783;SDS011;24531;45.502;12.238;2022-12-13T04:13:48;7.07;;;3.60;;
38783;SDS011;24531;45.502;12.238;2022-12-13T04:16:14;5.15;;;3.15;;
38783;SDS011;24531;45.502;12.238;2022-12-13T04:18:40;4.10;;;2.70;;
38783;SDS011;24531;45.502;12.238;2022-12-13T04:21:05;5.65;;;3.17;;
38783;SDS011;24531;45.502;12.238;2022-12-13T04:23:31;4.78;;;3.35;;
38783;SDS011;24531;45.502;12.238;2022-12-13T04:25:57;5.75;;;3.42;;
38783;SDS011;24531;45.502;12.238;2022-12-13T04:28:24;6.65;;;3.10;;
38783;SDS011;24531;45.502;12.238;2022-12-13T04:30:50;6.72;;;2.95;;
38783;SDS011;24531;45.502;12.238;2022-12-13T04:33:15;4.40;;;2.92;;
38783;SDS011;24531;45.502;12.238;2022-12-13T04:35:41;5.15;;;3.30;;
38783;SDS011;24531;45.502;12.238;2022-12-13T04:38:07;7.95;;;2.97;;
38783;SDS011;24531;45.502;12.238;2022-12-13T04:40:33;4.85;;;2.92;;
38783;SDS011;24531;45.502;12.238;2022-12-13T04:42:59;5.68;;;3.15;;
38783;SDS011;24531;45.502;12.238;2022-12-13T04:45:25;4.47;;;3.03;;
38783;SDS011;24531;45.502;12.238;2022-12-13T04:47:50;3.78;;;2.35;;
38783;SDS011;24531;45.502;12.238;2022-12-13T04:50:16;3.75;;;2.65;;
38783;SDS011;24531;45.502;12.238;2022-12-13T04:52:41;3.92;;;2.85;;
38783;SDS011;24531;45.502;12.238;2022-12-13T04:55:08;2.85;;;2.15;;
38783;SDS011;24531;45.502;12.238;2022-12-13T04:57:34;4.65;;;2.65;;
38783;SDS011;24531;45.502;12.238;2022-12-13T05:00:00;4.97;;;2.15;;
38783;SDS011;24531;45.502;12.238;2022-12-13T05:02:26;3.65;;;2.55;;
38783;SDS011;24531;45.502;12.238;2022-12-13T05:04:52;3.72;;;2.72;;
38783;SDS011;24531;45.502;12.238;2022-12-13T05:07:17;8.68;;;2.90;;
38783;SDS011;24531;45.502;12.238;2022-12-13T05:09:43;4.07;;;2.30;;
38783;SDS011;24531;45.502;12.238;2022-12-13T05:12:09;4.68;;;2.40;;
38783;SDS011;24531;45.502;12.238;2022-12-13T05:14:35;3.28;;;2.50;;
38783;SDS011;24531;45.502;12.238;2022-12-13T05:17:01;4.15;;;2.72;;
38783;SDS011;24531;45.502;12.238;2022-12-13T05:19:27;4.90;;;2.75;;
38783;SDS011;24531;45.502;12.238;2022-12-13T05:21:52;3.80;;;2.50;;
38783;SDS011;24531;45.502;12.238;2022-12-13T05:24:18;4.40;;;2.50;;
38783;SDS011;24531;45.502;12.238;2022-12-13T05:26:44;3.05;;;2.22;;
38783;SDS011;24531;45.502;12.238;2022-12-13T05:29:09;8.40;;;2.70;;
38783;SDS011;24531;45.502;12.238;2022-12-13T05:31:35;5.22;;;2.63;;
38783;SDS011;24531;45.502;12.238;2022-12-13T05:34:02;4.55;;;3.15;;
38783;SDS011;24531;45.502;12.238;2022-12-13T05:36:28;4.60;;;2.65;;
38783;SDS011;24531;45.502;12.238;2022-12-13T05:38:53;4.30;;;2.75;;
38783;SDS011;24531;45.502;12.238;2022-12-13T05:41:19;3.95;;;2.88;;
38783;SDS011;24531;45.502;12.238;2022-12-13T05:43:48;4.00;;;2.67;;
38783;SDS011;24531;45.502;12.238;2022-12-13T05:46:14;4.25;;;2.30;;
38783;SDS011;24531;45.502;12.238;2022-12-13T05:48:40;5.85;;;2.80;;
38783;SDS011;24531;45.502;12.238;2022-12-13T05:51:07;3.22;;;2.42;;
38783;SDS011;24531;45.502;12.238;2022-12-13T05:53:32;3.88;;;2.83;;
38783;SDS011;24531;45.502;12.238;2022-12-13T05:55:58;11.27;;;2.83;;
38783;SDS011;24531;45.502;12.238;2022-12-13T05:58:25;3.72;;;2.20;;
38783;SDS011;24531;45.502;12.238;2022-12-13T06:00:50;5.63;;;2.53;;
38783;SDS011;24531;45.502;12.238;2022-12-13T06:03:16;5.07;;;2.90;;
38783;SDS011;24531;45.502;12.238;2022-12-13T06:05:42;4.93;;;2.70;;
38783;SDS011;24531;45.502;12.238;2022-12-13T06:08:08;4.00;;;2.88;;
38783;SDS011;24531;45.502;12.238;2022-12-13T06:10:34;5.18;;;2.80;;
38783;SDS011;24531;45.502;12.238;2022-12-13T06:13:00;5.03;;;2.65;;
38783;SDS011;24531;45.502;12.238;2022-12-13T06:15:26;5.55;;;2.63;;
38783;SDS011;24531;45.502;12.238;2022-12-13T06:17:51;4.07;;;2.38;;
38783;SDS011;24531;45.502;12.238;2022-12-13T06:20:17;6.45;;;2.47;;
38783;SDS011;24531;45.502;12.238;2022-12-13T06:22:43;2.40;;;1.92;;
38783;SDS011;24531;45.502;12.238;2022-12-13T06:25:08;4.15;;;2.10;;
38783;SDS011;24531;45.502;12.238;2022-12-13T06:27:34;3.15;;;2.22;;
38783;SDS011;24531;45.502;12.238;2022-12-13T06:30:00;2.92;;;1.90;;
38783;SDS011;24531;45.502;12.238;2022-12-13T06:32:25;4.65;;;2.40;;
38783;SDS011;24531;45.502;12.238;2022-12-13T06:34:51;2.40;;;1.67;;
38783;SDS011;24531;45.502;12.238;2022-12-13T06:37:16;2.92;;;2.13;;
38783;SDS011;24531;45.502;12.238;2022-12-13T06:39:42;2.95;;;1.90;;
38783;SDS011;24531;45.502;12.238;2022-12-13T06:42:15;3.83;;;1.83;;
38783;SDS011;24531;45.502;12.238;2022-12-13T06:44:42;3.13;;;2.00;;
38783;SDS011;24531;45.502;12.238;2022-12-13T06:47:08;3.08;;;2.13;;
38783;SDS011;24531;45.502;12.238;2022-12-13T06:49:34;5.28;;;2.38;;
38783;SDS011;24531;45.502;12.238;2022-12-13T06:51:59;4.65;;;2.67;;
38783;SDS011;24531;45.502;12.238;2022-12-13T06:54:25;6.38;;;3.10;;
38783;SDS011;24531;45.502;12.238;2022-12-13T06:56:50;3.53;;;2.25;;
38783;SDS011;24531;45.502;12.238;2022-12-13T06:59:16;3.70;;;2.63;;
38783;SDS011;24531;45.502;12.238;2022-12-13T07:01:42;4.45;;;2.22;;
38783;SDS011;24531;45.502;12.238;2022-12-13T07:04:08;4.82;;;2.60;;
38783;SDS011;24531;45.502;12.238;2022-12-13T07:06:35;4.40;;;2.72;;
38783;SDS011;24531;45.502;12.238;2022-12-13T07:09:01;5.68;;;3.53;;
38783;SDS011;24531;45.502;12.238;2022-12-13T07:11:27;5.63;;;3.10;;
38783;SDS011;24531;45.502;12.238;2022-12-13T07:13:54;5.18;;;2.42;;
38783;SDS011;24531;45.502;12.238;2022-12-13T07:16:21;5.63;;;2.67;;
38783;SDS011;24531;45.502;12.238;2022-12-13T07:18:52;6.18;;;3.30;;
38783;SDS011;24531;45.502;12.238;2022-12-13T07:21:18;6.60;;;2.67;;
38783;SDS011;24531;45.502;12.238;2022-12-13T07:23:44;5.15;;;2.92;;
38783;SDS011;24531;45.502;12.238;2022-12-13T07:26:09;6.90;;;2.78;;
38783;SDS011;24531;45.502;12.238;2022-12-13T07:28:36;4.53;;;2.22;;
38783;SDS011;24531;45.502;12.238;2022-12-13T07:31:04;4.97;;;2.30;;
38783;SDS011;24531;45.502;12.238;2022-12-13T07:33:31;4.35;;;2.78;;
38783;SDS011;24531;45.502;12.238;2022-12-13T07:36:01;3.50;;;2.60;;
38783;SDS011;24531;45.502;12.238;2022-12-13T07:38:31;3.83;;;2.10;;
38783;SDS011;24531;45.502;12.238;2022-12-13T07:40:57;3.60;;;2.70;;
38783;SDS011;24531;45.502;12.238;2022-12-13T07:43:23;4.53;;;2.67;;
38783;SDS011;24531;45.502;12.238;2022-12-13T07:45:49;4.45;;;2.50;;
38783;SDS011;24531;45.502;12.238;2022-12-13T07:48:15;5.32;;;3.25;;
38783;SDS011;24531;45.502;12.238;2022-12-13T07:50:41;4.97;;;2.80;;
38783;SDS011;24531;45.502;12.238;2022-12-13T07:53:07;3.38;;;2.53;;
38783;SDS011;24531;45.502;12.238;2022-12-13T07:55:33;5.55;;;2.63;;
38783;SDS011;24531;45.502;12.238;2022-12-13T08:00:36;6.80;;;2.45;;
38783;SDS011;24531;45.502;12.238;2022-12-13T08:03:03;3.88;;;2.20;;
38783;SDS011;24531;45.502;12.238;2022-12-13T08:05:29;4.68;;;2.22;;
38783;SDS011;24531;45.502;12.238;2022-12-13T08:07:55;9.18;;;3.10;;
38783;SDS011;24531;45.502;12.238;2022-12-13T08:10:21;4.07;;;2.63;;
38783;SDS011;24531;45.502;12.238;2022-12-13T08:12:47;7.13;;;2.83;;
38783;SDS011;24531;45.502;12.238;2022-12-13T08:15:14;3.72;;;2.65;;
38783;SDS011;24531;45.502;12.238;2022-12-13T08:17:40;5.47;;;2.75;;
38783;SDS011;24531;45.502;12.238;2022-12-13T08:20:06;4.05;;;2.40;;
38783;SDS011;24531;45.502;12.238;2022-12-13T08:22:32;4.30;;;2.65;;
38783;SDS011;24531;45.502;12.238;2022-12-13T08:24:57;5.72;;;3.03;;
38783;SDS011;24531;45.502;12.238;2022-12-13T08:27:23;5.63;;;2.38;;
38783;SDS011;24531;45.502;12.238;2022-12-13T08:29:49;7.63;;;2.63;;
38783;SDS011;24531;45.502;12.238;2022-12-13T08:32:14;4.45;;;2.83;;
38783;SDS011;24531;45.502;12.238;2022-12-13T08:34:40;7.07;;;2.50;;
38783;SDS011;24531;45.502;12.238;2022-12-13T08:37:06;5.05;;;2.72;;
38783;SDS011;24531;45.502;12.238;2022-12-13T08:39:33;4.15;;;2.38;;
38783;SDS011;24531;45.502;12.238;2022-12-13T08:42:03;3.72;;;2.50;;
38783;SDS011;24531;45.502;12.238;2022-12-13T08:44:35;5.97;;;3.00;;
38783;SDS011;24531;45.502;12.238;2022-12-13T08:47:01;6.13;;;3.03;;
38783;SDS011;24531;45.502;12.238;2022-12-13T08:49:26;4.43;;;2.92;;
38783;SDS011;24531;45.502;12.238;2022-12-13T08:51:52;6.45;;;3.33;;
38783;SDS011;24531;45.502;12.238;2022-12-13T08:54:18;6.88;;;3.65;;
38783;SDS011;24531;45.502;12.238;2022-12-13T08:56:43;7.43;;;3.25;;
38783;SDS011;24531;45.502;12.238;2022-12-13T08:59:09;4.57;;;2.85;;
38783;SDS011;24531;45.502;12.238;2022-12-13T09:01:35;4.40;;;2.70;;
38783;SDS011;24531;45.502;12.238;2022-12-13T09:04:01;5.05;;;2.67;;
38783;SDS011;24531;45.502;12.238;2022-12-13T09:06:27;4.25;;;2.60;;
38783;SDS011;24531;45.502;12.238;2022-12-13T09:08:52;4.15;;;2.30;;
38783;SDS011;24531;45.502;12.238;2022-12-13T09:11:18;6.07;;;2.80;;
38783;SDS011;24531;45.502;12.238;2022-12-13T09:13:44;3.72;;;2.75;;
38783;SDS011;24531;45.502;12.238;2022-12-13T09:16:11;5.10;;;2.35;;
38783;SDS011;24531;45.502;12.238;2022-12-13T09:18:46;3.38;;;2.58;;
38783;SDS011;24531;45.502;12.238;2022-12-13T09:21:12;6.90;;;2.88;;
38783;SDS011;24531;45.502;12.238;2022-12-13T09:23:39;4.15;;;2.40;;
38783;SDS011;24531;45.502;12.238;2022-12-13T09:26:09;2.80;;;2.38;;
38783;SDS011;24531;45.502;12.238;2022-12-13T09:28:36;4.20;;;2.83;;
38783;SDS011;24531;45.502;12.238;2022-12-13T09:31:09;7.40;;;2.70;;
38783;SDS011;24531;45.502;12.238;2022-12-13T09:33:36;7.25;;;2.78;;
38783;SDS011;24531;45.502;12.238;2022-12-13T09:36:03;2.97;;;2.25;;
38783;SDS011;24531;45.502;12.238;2022-12-13T09:38:31;3.78;;;2.45;;
38783;SDS011;24531;45.502;12.238;2022-12-13T09:40:57;5.70;;;2.33;;
38783;SDS011;24531;45.502;12.238;2022-12-13T09:43:28;3.95;;;2.80;;
38783;SDS011;24531;45.502;12.238;2022-12-13T09:45:56;4.60;;;3.05;;
38783;SDS011;24531;45.502;12.238;2022-12-13T09:48:23;5.63;;;3.35;;
38783;SDS011;24531;45.502;12.238;2022-12-13T09:50:49;4.85;;;2.83;;
38783;SDS011;24531;45.502;12.238;2022-12-13T09:53:16;3.70;;;2.20;;
38783;SDS011;24531;45.502;12.238;2022-12-13T09:55:44;4.68;;;2.88;;
38783;SDS011;24531;45.502;12.238;2022-12-13T09:58:13;4.15;;;2.35;;
38783;SDS011;24531;45.502;12.238;2022-12-13T10:00:46;5.43;;;2.63;;
38783;SDS011;24531;45.502;12.238;2022-12-13T10:03:14;3.95;;;2.28;;
38783;SDS011;24531;45.502;12.238;2022-12-13T10:05:49;2.97;;;2.17;;
38783;SDS011;24531;45.502;12.238;2022-12-13T10:08:24;4.00;;;2.15;;
38783;SDS011;24531;45.502;12.238;2022-12-13T10:10:56;2.83;;;2.25;;
38783;SDS011;24531;45.502;12.238;2022-12-13T10:16:12;2.80;;;1.92;;
38783;SDS011;24531;45.502;12.238;2022-12-13T10:18:47;2.55;;;1.83;;
38783;SDS011;24531;45.502;12.238;2022-12-13T10:21:21;2.67;;;1.98;;
38783;SDS011;24531;45.502;12.238;2022-12-13T10:23:51;3.97;;;2.08;;
38783;SDS011;24531;45.502;12.238;2022-12-13T10:26:17;5.10;;;2.30;;
38783;SDS011;24531;45.502;12.238;2022-12-13T10:28:43;2.42;;;2.10;;
38783;SDS011;24531;45.502;12.238;2022-12-13T10:31:14;5.00;;;2.67;;
38783;SDS011;24531;45.502;12.238;2022-12-13T10:33:48;5.80;;;3.10;;
38783;SDS011;24531;45.502;12.238;2022-12-13T10:38:58;5.05;;;2.67;;
38783;SDS011;24531;45.502;12.238;2022-12-13T10:46:50;5.15;;;2.95;;
38783;SDS011;24531;45.502;12.238;2022-12-13T10:49:22;5.82;;;2.67;;
38783;SDS011;24531;45.502;12.238;2022-12-13T10:51:50;5.28;;;2.83;;
38783;SDS011;24531;45.502;12.238;2022-12-13T10:54:33;6.93;;;2.35;;
38783;SDS011;24531;45.502;12.238;2022-12-13T10:57:01;5.43;;;2.72;;
38783;SDS011;24531;45.502;12.238;2022-12-13T11:01:53;6.43;;;2.90;;
38783;SDS011;24531;45.502;12.238;2022-12-13T11:04:20;6.07;;;2.38;;
38783;SDS011;24531;45.502;12.238;2022-12-13T11:06:47;5.07;;;2.35;;
38783;SDS011;24531;45.502;12.238;2022-12-13T11:09:15;7.00;;;2.58;;
38783;SDS011;24531;45.502;12.238;2022-12-13T11:11:49;5.32;;;2.95;;
38783;SDS011;24531;45.502;12.238;2022-12-13T11:14:17;4.18;;;2.40;;
38783;SDS011;24531;45.502;12.238;2022-12-13T11:16:48;3.92;;;2.58;;
38783;SDS011;24531;45.502;12.238;2022-12-13T11:19:18;5.53;;;2.35;;
38783;SDS011;24531;45.502;12.238;2022-12-13T11:22:18;3.50;;;1.85;;
38783;SDS011;24531;45.502;12.238;2022-12-13T11:24:56;3.90;;;2.20;;
38783;SDS011;24531;45.502;12.238;2022-12-13T11:38:25;6.82;;;2.72;;
38783;SDS011;24531;45.502;12.238;2022-12-13T11:41:17;4.50;;;2.30;;
38783;SDS011;24531;45.502;12.238;2022-12-13T11:44:13;4.15;;;2.22;;
38783;SDS011;24531;45.502;12.238;2022-12-13T11:46:50;4.00;;;2.40;;
38783;SDS011;24531;45.502;12.238;2022-12-13T11:49:33;3.33;;;2.47;;
38783;SDS011;24531;45.502;12.238;2022-12-13T11:52:08;7.07;;;2.72;;
38783;SDS011;24531;45.502;12.238;2022-12-13T11:54:46;4.38;;;2.90;;
38783;SDS011;24531;45.502;12.238;2022-12-13T12:00:04;4.03;;;2.80;;
38783;SDS011;24531;45.502;12.238;2022-12-13T12:02:40;4.75;;;2.80;;
38783;SDS011;24531;45.502;12.238;2022-12-13T12:05:29;7.97;;;2.73;;
38783;SDS011;24531;45.502;12.238;2022-12-13T12:08:03;5.00;;;3.08;;
38783;SDS011;24531;45.502;12.238;2022-12-13T12:10:37;4.82;;;3.13;;
38783;SDS011;24531;45.502;12.238;2022-12-13T12:13:09;7.30;;;3.03;;
38783;SDS011;24531;45.502;12.238;2022-12-13T12:18:44;4.85;;;2.95;;
38783;SDS011;24531;45.502;12.238;2022-12-13T12:29:26;4.40;;;2.75;;
38783;SDS011;24531;45.502;12.238;2022-12-13T12:32:19;3.55;;;2.80;;
38783;SDS011;24531;45.502;12.238;2022-12-13T12:38:19;5.88;;;3.00;;
38783;SDS011;24531;45.502;12.238;2022-12-13T12:59:15;6.55;;;3.80;;
38783;SDS011;24531;45.502;12.238;2022-12-13T13:04:09;5.15;;;3.33;;
38783;SDS011;24531;45.502;12.238;2022-12-13T13:07:01;5.38;;;3.38;;
38783;SDS011;24531;45.502;12.238;2022-12-13T13:09:30;8.82;;;3.35;;
38783;SDS011;24531;45.502;12.238;2022-12-13T13:11:57;6.32;;;3.05;;
38783;SDS011;24531;45.502;12.238;2022-12-13T13:14:34;5.93;;;2.90;;
38783;SDS011;24531;45.502;12.238;2022-12-13T13:19:52;8.60;;;3.08;;
38783;SDS011;24531;45.502;12.238;2022-12-13T13:22:36;5.03;;;3.03;;
38783;SDS011;24531;45.502;12.238;2022-12-13T13:27:49;5.35;;;3.55;;
38783;SDS011;24531;45.502;12.238;2022-12-13T13:30:23;4.82;;;3.30;;
38783;SDS011;24531;45.502;12.238;2022-12-13T13:32:53;5.75;;;3.70;;
38783;SDS011;24531;45.502;12.238;2022-12-13T13:37:58;5.70;;;3.65;;
38783;SDS011;24531;45.502;12.238;2022-12-13T13:40:27;6.00;;;3.03;;
38783;SDS011;24531;45.502;12.238;2022-12-13T13:43:11;5.95;;;3.97;;
38783;SDS011;24531;45.502;12.238;2022-12-13T13:54:03;4.57;;;2.92;;
38783;SDS011;24531;45.502;12.238;2022-12-13T14:26:06;4.72;;;2.90;;
38783;SDS011;24531;45.502;12.238;2022-12-13T14:28:45;2.83;;;2.10;;
38783;SDS011;24531;45.502;12.238;2022-12-13T14:31:15;6.30;;;3.08;;
38783;SDS011;24531;45.502;12.238;2022-12-13T14:33:45;8.63;;;2.88;;
38783;SDS011;24531;45.502;12.238;2022-12-13T14:36:16;4.35;;;2.58;;
38783;SDS011;24531;45.502;12.238;2022-12-13T14:38:49;7.57;;;3.42;;
38783;SDS011;24531;45.502;12.238;2022-12-13T14:41:24;6.45;;;2.80;;
38783;SDS011;24531;45.502;12.238;2022-12-13T14:43:50;5.60;;;3.35;;
38783;SDS011;24531;45.502;12.238;2022-12-13T14:46:15;5.93;;;3.05;;
38783;SDS011;24531;45.502;12.238;2022-12-13T14:48:48;4.80;;;3.08;;
38783;SDS011;24531;45.502;12.238;2022-12-13T14:51:38;7.63;;;3.45;;
38783;SDS011;24531;45.502;12.238;2022-12-13T14:54:04;3.50;;;2.60;;
38783;SDS011;24531;45.502;12.238;2022-12-13T14:56:31;9.68;;;2.85;;
38783;SDS011;24531;45.502;12.238;2022-12-13T14:59:02;4.55;;;3.15;;
38783;SDS011;24531;45.502;12.238;2022-12-13T15:01:36;5.72;;;3.55;;
38783;SDS011;24531;45.502;12.238;2022-12-13T15:07:05;3.80;;;2.65;;
38783;SDS011;24531;45.502;12.238;2022-12-13T15:10:02;7.72;;;3.28;;
38783;SDS011;24531;45.502;12.238;2022-12-13T15:12:49;6.13;;;3.28;;
38783;SDS011;24531;45.502;12.238;2022-12-13T15:15:27;5.43;;;4.07;;
38783;SDS011;24531;45.502;12.238;2022-12-13T15:20:48;4.93;;;3.95;;
38783;SDS011;24531;45.502;12.238;2022-12-13T15:26:02;5.40;;;3.50;;
38783;SDS011;24531;45.502;12.238;2022-12-13T15:28:48;6.22;;;3.13;;
38783;SDS011;24531;45.502;12.238;2022-12-13T15:31:21;7.57;;;3.72;;
38783;SDS011;24531;45.502;12.238;2022-12-13T15:33:48;8.95;;;3.22;;
38783;SDS011;24531;45.502;12.238;2022-12-13T15:36:26;8.73;;;3.40;;
38783;SDS011;24531;45.502;12.238;2022-12-13T15:41:19;6.47;;;3.65;;
38783;SDS011;24531;45.502;12.238;2022-12-13T15:43:57;7.97;;;3.33;;
38783;SDS011;24531;45.502;12.238;2022-12-13T15:46:26;7.47;;;3.72;;
38783;SDS011;24531;45.502;12.238;2022-12-13T15:48:57;6.60;;;3.72;;
38783;SDS011;24531;45.502;12.238;2022-12-13T15:51:24;7.35;;;3.20;;
38783;SDS011;24531;45.502;12.238;2022-12-13T15:59:25;6.30;;;4.18;;
38783;SDS011;24531;45.502;12.238;2022-12-13T16:01:51;9.73;;;3.65;;
38783;SDS011;24531;45.502;12.238;2022-12-13T16:04:23;7.82;;;3.90;;
38783;SDS011;24531;45.502;12.238;2022-12-13T16:06:52;7.68;;;4.25;;
38783;SDS011;24531;45.502;12.238;2022-12-13T16:09:19;9.13;;;4.65;;
38783;SDS011;24531;45.502;12.238;2022-12-13T16:11:49;9.75;;;4.35;;
38783;SDS011;24531;45.502;12.238;2022-12-13T16:14:24;10.57;;;4.80;;
38783;SDS011;24531;45.502;12.238;2022-12-13T16:16:55;8.30;;;4.50;;
38783;SDS011;24531;45.502;12.238;2022-12-13T16:19:29;11.20;;;5.13;;
38783;SDS011;24531;45.502;12.238;2022-12-13T16:21:54;10.10;;;5.10;;
38783;SDS011;24531;45.502;12.238;2022-12-13T16:24:20;11.07;;;5.30;;
38783;SDS011;24531;45.502;12.238;2022-12-13T16:26:46;8.88;;;5.32;;
38783;SDS011;24531;45.502;12.238;2022-12-13T16:29:13;9.07;;;4.60;;
38783;SDS011;24531;45.502;12.238;2022-12-13T16:31:41;9.60;;;5.05;;
38783;SDS011;24531;45.502;12.238;2022-12-13T16:34:08;10.57;;;5.30;;
38783;SDS011;24531;45.502;12.238;2022-12-13T16:36:34;8.23;;;4.78;;
38783;SDS011;24531;45.502;12.238;2022-12-13T16:39:00;11.35;;;5.07;;
38783;SDS011;24531;45.502;12.238;2022-12-13T16:41:27;7.63;;;4.90;;
38783;SDS011;24531;45.502;12.238;2022-12-13T16:44:00;10.75;;;4.80;;
38783;SDS011;24531;45.502;12.238;2022-12-13T16:46:27;9.38;;;5.28;;
38783;SDS011;24531;45.502;12.238;2022-12-13T16:48:53;12.00;;;5.47;;
38783;SDS011;24531;45.502;12.238;2022-12-13T16:51:19;11.50;;;6.32;;
38783;SDS011;24531;45.502;12.238;2022-12-13T16:53:45;10.00;;;5.00;;
38783;SDS011;24531;45.502;12.238;2022-12-13T16:56:11;11.27;;;6.60;;
38783;SDS011;24531;45.502;12.238;2022-12-13T16:58:40;11.20;;;6.40;;
38783;SDS011;24531;45.502;12.238;2022-12-13T17:01:10;9.63;;;5.82;;
38783;SDS011;24531;45.502;12.238;2022-12-13T17:03:37;12.80;;;5.80;;
38783;SDS011;24531;45.502;12.238;2022-12-13T17:06:04;10.30;;;5.85;;
38783;SDS011;24531;45.502;12.238;2022-12-13T17:08:30;10.38;;;6.07;;
38783;SDS011;24531;45.502;12.238;2022-12-13T17:10:57;9.70;;;6.10;;
38783;SDS011;24531;45.502;12.238;2022-12-13T17:13:23;12.25;;;5.88;;
38783;SDS011;24531;45.502;12.238;2022-12-13T17:15:48;10.60;;;5.70;;
38783;SDS011;24531;45.502;12.238;2022-12-13T17:18:14;11.20;;;6.05;;